sensor_id;sensor_type;location;lat;lon;timestamp;P1;durP1;ratioP1;P2;durP2;ratioP2
67352;SDS011;54238;52.278;21.056;2022-07-21T00:00:57;7.50;;;4.40;;
67352;SDS011;54238;52.278;21.056;2022-07-21T00:03:29;6.30;;;4.30;;
67352;SDS011;54238;52.278;21.056;2022-07-21T00:05:57;6.60;;;4.60;;
67352;SDS011;54238;52.278;21.056;2022-07-21T00:08:26;6.70;;;5.10;;
67352;SDS011;54238;52.278;21.056;2022-07-21T00:10:58;7.80;;;4.60;;
67352;SDS011;54238;52.278;21.056;2022-07-21T00:13:25;7.20;;;5.00;;
67352;SDS011;54238;52.278;21.056;2022-07-21T00:15:54;7.10;;;4.50;;
67352;SDS011;54238;52.278;21.056;2022-07-21T00:18:21;10.50;;;5.40;;
67352;SDS011;54238;52.278;21.056;2022-07-21T00:20:50;9.60;;;5.20;;
67352;SDS011;54238;52.278;21.056;2022-07-21T00:23:22;5.50;;;4.70;;
67352;SDS011;54238;52.278;21.056;2022-07-21T00:25:51;10.20;;;5.00;;
67352;SDS011;54238;52.278;21.056;2022-07-21T00:28:21;6.90;;;4.30;;
67352;SDS011;54238;52.278;21.056;2022-07-21T00:30:51;7.10;;;4.70;;
67352;SDS011;54238;52.278;21.056;2022-07-21T00:33:18;11.30;;;4.30;;
67352;SDS011;54238;52.278;21.056;2022-07-21T00:35:49;8.70;;;4.80;;
67352;SDS011;54238;52.278;21.056;2022-07-21T00:38:18;5.80;;;4.50;;
67352;SDS011;54238;52.278;21.056;2022-07-21T00:40:48;6.40;;;4.40;;
67352;SDS011;54238;52.278;21.056;2022-07-21T00:43:17;5.80;;;3.90;;
67352;SDS011;54238;52.278;21.056;2022-07-21T00:45:46;7.10;;;4.20;;
67352;SDS011;54238;52.278;21.056;2022-07-21T00:48:18;7.30;;;4.00;;
67352;SDS011;54238;52.278;21.056;2022-07-21T00:50:46;6.90;;;4.40;;
67352;SDS011;54238;52.278;21.056;2022-07-21T00:53:13;6.20;;;4.90;;
67352;SDS011;54238;52.278;21.056;2022-07-21T00:55:42;5.50;;;4.60;;
67352;SDS011;54238;52.278;21.056;2022-07-21T00:58:13;8.60;;;4.60;;
67352;SDS011;54238;52.278;21.056;2022-07-21T01:00:40;7.40;;;4.30;;
67352;SDS011;54238;52.278;21.056;2022-07-21T01:03:10;4.80;;;4.10;;
67352;SDS011;54238;52.278;21.056;2022-07-21T01:05:38;7.10;;;4.60;;
67352;SDS011;54238;52.278;21.056;2022-07-21T01:08:12;7.70;;;4.90;;
67352;SDS011;54238;52.278;21.056;2022-07-21T01:10:43;6.60;;;4.80;;
67352;SDS011;54238;52.278;21.056;2022-07-21T01:13:16;6.50;;;5.00;;
67352;SDS011;54238;52.278;21.056;2022-07-21T01:15:48;8.90;;;5.20;;
67352;SDS011;54238;52.278;21.056;2022-07-21T01:18:20;5.90;;;4.00;;
67352;SDS011;54238;52.278;21.056;2022-07-21T01:20:54;9.80;;;4.70;;
67352;SDS011;54238;52.278;21.056;2022-07-21T01:23:26;5.90;;;4.50;;
67352;SDS011;54238;52.278;21.056;2022-07-21T01:25:56;8.10;;;5.00;;
67352;SDS011;54238;52.278;21.056;2022-07-21T01:28:25;9.40;;;5.10;;
67352;SDS011;54238;52.278;21.056;2022-07-21T01:30:57;9.50;;;4.80;;
67352;SDS011;54238;52.278;21.056;2022-07-21T01:33:26;4.80;;;4.30;;
67352;SDS011;54238;52.278;21.056;2022-07-21T01:35:55;7.20;;;4.40;;
67352;SDS011;54238;52.278;21.056;2022-07-21T01:38:24;7.10;;;4.40;;
67352;SDS011;54238;52.278;21.056;2022-07-21T01:41:14;7.70;;;4.70;;
67352;SDS011;54238;52.278;21.056;2022-07-21T01:43:57;10.30;;;5.30;;
67352;SDS011;54238;52.278;21.056;2022-07-21T01:46:33;9.20;;;5.80;;
67352;SDS011;54238;52.278;21.056;2022-07-21T01:49:07;8.10;;;5.40;;
67352;SDS011;54238;52.278;21.056;2022-07-21T01:51:37;6.90;;;4.70;;
67352;SDS011;54238;52.278;21.056;2022-07-21T01:54:05;7.80;;;4.50;;
67352;SDS011;54238;52.278;21.056;2022-07-21T01:56:37;7.10;;;5.00;;
67352;SDS011;54238;52.278;21.056;2022-07-21T01:59:10;6.80;;;4.40;;
67352;SDS011;54238;52.278;21.056;2022-07-21T02:01:40;6.30;;;4.20;;
67352;SDS011;54238;52.278;21.056;2022-07-21T02:04:09;6.90;;;4.60;;
67352;SDS011;54238;52.278;21.056;2022-07-21T02:06:37;7.30;;;4.20;;
67352;SDS011;54238;52.278;21.056;2022-07-21T02:09:04;7.50;;;4.60;;
67352;SDS011;54238;52.278;21.056;2022-07-21T02:11:34;6.40;;;5.00;;
67352;SDS011;54238;52.278;21.056;2022-07-21T02:14:03;8.60;;;5.00;;
67352;SDS011;54238;52.278;21.056;2022-07-21T02:16:30;6.90;;;4.40;;
67352;SDS011;54238;52.278;21.056;2022-07-21T02:19:03;5.40;;;4.30;;
67352;SDS011;54238;52.278;21.056;2022-07-21T02:21:30;8.90;;;4.40;;
67352;SDS011;54238;52.278;21.056;2022-07-21T02:23:59;5.60;;;4.40;;
67352;SDS011;54238;52.278;21.056;2022-07-21T02:26:29;6.40;;;4.30;;
67352;SDS011;54238;52.278;21.056;2022-07-21T02:29:01;9.60;;;4.50;;
67352;SDS011;54238;52.278;21.056;2022-07-21T02:31:36;6.90;;;4.60;;
67352;SDS011;54238;52.278;21.056;2022-07-21T02:34:03;5.10;;;3.70;;
67352;SDS011;54238;52.278;21.056;2022-07-21T02:36:33;7.50;;;4.20;;
67352;SDS011;54238;52.278;21.056;2022-07-21T02:39:01;6.90;;;4.40;;
67352;SDS011;54238;52.278;21.056;2022-07-21T02:41:31;7.30;;;4.90;;
67352;SDS011;54238;52.278;21.056;2022-07-21T02:44:05;5.40;;;4.20;;
67352;SDS011;54238;52.278;21.056;2022-07-21T02:46:37;11.80;;;4.80;;
67352;SDS011;54238;52.278;21.056;2022-07-21T02:49:06;8.30;;;4.80;;
67352;SDS011;54238;52.278;21.056;2022-07-21T02:51:35;9.10;;;4.70;;
67352;SDS011;54238;52.278;21.056;2022-07-21T02:54:05;6.10;;;4.40;;
67352;SDS011;54238;52.278;21.056;2022-07-21T02:56:34;6.40;;;4.70;;
67352;SDS011;54238;52.278;21.056;2022-07-21T02:59:03;6.20;;;4.20;;
67352;SDS011;54238;52.278;21.056;2022-07-21T03:01:35;6.60;;;4.60;;
67352;SDS011;54238;52.278;21.056;2022-07-21T03:04:02;7.00;;;5.00;;
67352;SDS011;54238;52.278;21.056;2022-07-21T03:06:36;10.00;;;4.90;;
67352;SDS011;54238;52.278;21.056;2022-07-21T03:09:05;6.30;;;4.90;;
67352;SDS011;54238;52.278;21.056;2022-07-21T03:11:32;7.00;;;4.70;;
67352;SDS011;54238;52.278;21.056;2022-07-21T03:13:59;10.60;;;4.60;;
67352;SDS011;54238;52.278;21.056;2022-07-21T03:16:28;11.80;;;5.20;;
67352;SDS011;54238;52.278;21.056;2022-07-21T03:18:58;5.20;;;4.40;;
67352;SDS011;54238;52.278;21.056;2022-07-21T03:21:25;7.30;;;4.70;;
67352;SDS011;54238;52.278;21.056;2022-07-21T03:23:59;6.60;;;4.30;;
67352;SDS011;54238;52.278;21.056;2022-07-21T03:26:28;8.20;;;4.70;;
67352;SDS011;54238;52.278;21.056;2022-07-21T03:28:57;9.20;;;4.50;;
67352;SDS011;54238;52.278;21.056;2022-07-21T03:31:25;8.60;;;4.30;;
67352;SDS011;54238;52.278;21.056;2022-07-21T03:33:52;9.70;;;4.80;;
67352;SDS011;54238;52.278;21.056;2022-07-21T03:36:21;7.00;;;4.30;;
67352;SDS011;54238;52.278;21.056;2022-07-21T03:38:51;6.60;;;4.10;;
67352;SDS011;54238;52.278;21.056;2022-07-21T03:41:20;7.00;;;4.80;;
67352;SDS011;54238;52.278;21.056;2022-07-21T03:43:53;6.60;;;4.50;;
67352;SDS011;54238;52.278;21.056;2022-07-21T03:46:23;8.30;;;4.50;;
67352;SDS011;54238;52.278;21.056;2022-07-21T03:48:54;6.40;;;4.60;;
67352;SDS011;54238;52.278;21.056;2022-07-21T03:51:21;5.90;;;4.30;;
67352;SDS011;54238;52.278;21.056;2022-07-21T03:53:48;6.70;;;4.50;;
67352;SDS011;54238;52.278;21.056;2022-07-21T03:56:20;7.20;;;4.50;;
67352;SDS011;54238;52.278;21.056;2022-07-21T03:58:51;6.80;;;4.70;;
67352;SDS011;54238;52.278;21.056;2022-07-21T04:01:23;8.70;;;4.60;;
67352;SDS011;54238;52.278;21.056;2022-07-21T04:03:51;10.00;;;4.40;;
67352;SDS011;54238;52.278;21.056;2022-07-21T04:06:18;9.20;;;4.80;;
67352;SDS011;54238;52.278;21.056;2022-07-21T04:08:45;7.70;;;4.50;;
67352;SDS011;54238;52.278;21.056;2022-07-21T04:11:14;13.30;;;8.40;;
67352;SDS011;54238;52.278;21.056;2022-07-21T04:13:43;8.10;;;4.50;;
67352;SDS011;54238;52.278;21.056;2022-07-21T04:16:12;6.10;;;4.50;;
67352;SDS011;54238;52.278;21.056;2022-07-21T04:18:44;6.70;;;5.20;;
67352;SDS011;54238;52.278;21.056;2022-07-21T04:21:16;6.00;;;4.60;;
67352;SDS011;54238;52.278;21.056;2022-07-21T04:23:48;11.90;;;5.50;;
67352;SDS011;54238;52.278;21.056;2022-07-21T04:26:17;5.80;;;4.10;;
67352;SDS011;54238;52.278;21.056;2022-07-21T04:28:49;8.20;;;4.60;;
67352;SDS011;54238;52.278;21.056;2022-07-21T04:31:16;7.70;;;4.80;;
67352;SDS011;54238;52.278;21.056;2022-07-21T04:33:46;6.20;;;4.00;;
67352;SDS011;54238;52.278;21.056;2022-07-21T04:36:18;7.30;;;4.40;;
67352;SDS011;54238;52.278;21.056;2022-07-21T04:38:48;5.50;;;3.90;;
67352;SDS011;54238;52.278;21.056;2022-07-21T04:41:17;6.30;;;3.80;;
67352;SDS011;54238;52.278;21.056;2022-07-21T04:43:44;8.70;;;4.10;;
67352;SDS011;54238;52.278;21.056;2022-07-21T04:46:16;6.00;;;3.90;;
67352;SDS011;54238;52.278;21.056;2022-07-21T04:48:44;7.80;;;4.20;;
67352;SDS011;54238;52.278;21.056;2022-07-21T04:51:15;6.50;;;4.10;;
67352;SDS011;54238;52.278;21.056;2022-07-21T04:53:43;5.40;;;3.70;;
67352;SDS011;54238;52.278;21.056;2022-07-21T04:56:12;9.40;;;3.70;;
67352;SDS011;54238;52.278;21.056;2022-07-21T04:58:41;6.70;;;4.50;;
67352;SDS011;54238;52.278;21.056;2022-07-21T05:01:08;6.10;;;4.00;;
67352;SDS011;54238;52.278;21.056;2022-07-21T05:03:35;8.50;;;4.10;;
67352;SDS011;54238;52.278;21.056;2022-07-21T05:06:07;15.50;;;3.50;;
67352;SDS011;54238;52.278;21.056;2022-07-21T05:08:41;3.90;;;3.20;;
67352;SDS011;54238;52.278;21.056;2022-07-21T05:11:08;10.10;;;3.50;;
67352;SDS011;54238;52.278;21.056;2022-07-21T05:16:38;11.20;;;3.60;;
67352;SDS011;54238;52.278;21.056;2022-07-21T05:19:06;6.00;;;3.40;;
67352;SDS011;54238;52.278;21.056;2022-07-21T05:21:37;10.30;;;3.80;;
67352;SDS011;54238;52.278;21.056;2022-07-21T05:24:07;4.90;;;3.40;;
67352;SDS011;54238;52.278;21.056;2022-07-21T05:26:35;5.60;;;3.20;;
67352;SDS011;54238;52.278;21.056;2022-07-21T05:29:05;10.80;;;3.20;;
67352;SDS011;54238;52.278;21.056;2022-07-21T05:31:35;8.80;;;3.00;;
67352;SDS011;54238;52.278;21.056;2022-07-21T05:34:04;7.90;;;3.60;;
67352;SDS011;54238;52.278;21.056;2022-07-21T05:36:38;6.60;;;3.70;;
67352;SDS011;54238;52.278;21.056;2022-07-21T05:39:05;9.60;;;3.40;;
67352;SDS011;54238;52.278;21.056;2022-07-21T05:41:32;10.00;;;3.60;;
67352;SDS011;54238;52.278;21.056;2022-07-21T05:44:27;10.50;;;3.30;;
67352;SDS011;54238;52.278;21.056;2022-07-21T05:46:57;6.70;;;3.00;;
67352;SDS011;54238;52.278;21.056;2022-07-21T05:49:26;6.30;;;3.40;;
67352;SDS011;54238;52.278;21.056;2022-07-21T05:51:56;10.20;;;2.80;;
67352;SDS011;54238;52.278;21.056;2022-07-21T05:54:23;6.90;;;2.80;;
67352;SDS011;54238;52.278;21.056;2022-07-21T05:56:52;7.80;;;3.70;;
67352;SDS011;54238;52.278;21.056;2022-07-21T05:59:19;4.40;;;2.90;;
67352;SDS011;54238;52.278;21.056;2022-07-21T06:02:14;8.00;;;3.60;;
67352;SDS011;54238;52.278;21.056;2022-07-21T06:04:48;5.80;;;2.60;;
67352;SDS011;54238;52.278;21.056;2022-07-21T06:07:20;5.30;;;2.40;;
67352;SDS011;54238;52.278;21.056;2022-07-21T06:09:52;8.00;;;3.00;;
67352;SDS011;54238;52.278;21.056;2022-07-21T06:12:19;8.60;;;2.90;;
67352;SDS011;54238;52.278;21.056;2022-07-21T06:14:48;5.70;;;2.40;;
67352;SDS011;54238;52.278;21.056;2022-07-21T06:17:20;4.30;;;2.60;;
67352;SDS011;54238;52.278;21.056;2022-07-21T06:19:47;6.50;;;2.90;;
67352;SDS011;54238;52.278;21.056;2022-07-21T06:22:17;5.20;;;2.30;;
67352;SDS011;54238;52.278;21.056;2022-07-21T06:24:48;6.40;;;2.60;;
67352;SDS011;54238;52.278;21.056;2022-07-21T06:27:30;6.60;;;2.90;;
67352;SDS011;54238;52.278;21.056;2022-07-21T06:29:58;7.70;;;2.90;;
67352;SDS011;54238;52.278;21.056;2022-07-21T06:32:25;5.30;;;2.50;;
67352;SDS011;54238;52.278;21.056;2022-07-21T06:34:54;7.90;;;2.90;;
67352;SDS011;54238;52.278;21.056;2022-07-21T06:37:21;8.40;;;2.60;;
67352;SDS011;54238;52.278;21.056;2022-07-21T06:39:48;8.20;;;2.60;;
67352;SDS011;54238;52.278;21.056;2022-07-21T06:42:17;5.00;;;2.60;;
67352;SDS011;54238;52.278;21.056;2022-07-21T06:44:47;4.00;;;2.00;;
67352;SDS011;54238;52.278;21.056;2022-07-21T06:47:17;4.70;;;2.10;;
67352;SDS011;54238;52.278;21.056;2022-07-21T06:49:48;7.20;;;2.30;;
67352;SDS011;54238;52.278;21.056;2022-07-21T06:52:18;5.60;;;2.30;;
67352;SDS011;54238;52.278;21.056;2022-07-21T06:54:45;6.20;;;2.40;;
67352;SDS011;54238;52.278;21.056;2022-07-21T06:57:17;7.80;;;2.50;;
67352;SDS011;54238;52.278;21.056;2022-07-21T06:59:44;11.30;;;2.50;;
67352;SDS011;54238;52.278;21.056;2022-07-21T07:02:14;3.90;;;2.20;;
67352;SDS011;54238;52.278;21.056;2022-07-21T07:04:42;3.10;;;2.10;;
67352;SDS011;54238;52.278;21.056;2022-07-21T07:07:12;3.20;;;2.10;;
67352;SDS011;54238;52.278;21.056;2022-07-21T07:09:40;6.00;;;2.10;;
67352;SDS011;54238;52.278;21.056;2022-07-21T07:12:11;4.30;;;2.10;;
67352;SDS011;54238;52.278;21.056;2022-07-21T07:14:44;6.30;;;2.20;;
67352;SDS011;54238;52.278;21.056;2022-07-21T07:17:18;6.20;;;2.10;;
67352;SDS011;54238;52.278;21.056;2022-07-21T07:19:47;5.60;;;2.30;;
67352;SDS011;54238;52.278;21.056;2022-07-21T07:22:17;3.90;;;2.00;;
67352;SDS011;54238;52.278;21.056;2022-07-21T07:24:47;3.90;;;2.30;;
67352;SDS011;54238;52.278;21.056;2022-07-21T07:27:14;5.10;;;2.80;;
67352;SDS011;54238;52.278;21.056;2022-07-21T07:29:44;9.00;;;2.00;;
67352;SDS011;54238;52.278;21.056;2022-07-21T07:32:15;5.80;;;1.90;;
67352;SDS011;54238;52.278;21.056;2022-07-21T07:34:42;3.20;;;2.10;;
67352;SDS011;54238;52.278;21.056;2022-07-21T07:37:09;2.50;;;1.60;;
67352;SDS011;54238;52.278;21.056;2022-07-21T07:39:39;5.60;;;2.30;;
67352;SDS011;54238;52.278;21.056;2022-07-21T07:42:08;2.20;;;1.80;;
67352;SDS011;54238;52.278;21.056;2022-07-21T07:44:42;5.50;;;2.60;;
67352;SDS011;54238;52.278;21.056;2022-07-21T07:47:10;3.90;;;2.10;;
67352;SDS011;54238;52.278;21.056;2022-07-21T07:49:36;5.20;;;1.90;;
67352;SDS011;54238;52.278;21.056;2022-07-21T07:52:06;5.00;;;2.10;;
67352;SDS011;54238;52.278;21.056;2022-07-21T07:54:32;4.50;;;2.20;;
67352;SDS011;54238;52.278;21.056;2022-07-21T07:57:02;3.70;;;1.80;;
67352;SDS011;54238;52.278;21.056;2022-07-21T07:59:32;5.90;;;2.60;;
67352;SDS011;54238;52.278;21.056;2022-07-21T08:01:59;3.60;;;2.10;;
67352;SDS011;54238;52.278;21.056;2022-07-21T08:04:29;4.80;;;2.20;;
67352;SDS011;54238;52.278;21.056;2022-07-21T08:06:56;4.80;;;2.30;;
67352;SDS011;54238;52.278;21.056;2022-07-21T08:09:30;7.40;;;2.20;;
67352;SDS011;54238;52.278;21.056;2022-07-21T08:14:33;4.50;;;1.70;;
67352;SDS011;54238;52.278;21.056;2022-07-21T08:17:03;4.90;;;1.90;;
67352;SDS011;54238;52.278;21.056;2022-07-21T08:19:32;6.00;;;2.10;;
67352;SDS011;54238;52.278;21.056;2022-07-21T08:22:01;8.10;;;2.40;;
67352;SDS011;54238;52.278;21.056;2022-07-21T08:24:29;5.20;;;2.20;;
67352;SDS011;54238;52.278;21.056;2022-07-21T08:26:57;4.00;;;2.40;;
67352;SDS011;54238;52.278;21.056;2022-07-21T08:29:24;6.10;;;2.30;;
67352;SDS011;54238;52.278;21.056;2022-07-21T08:31:53;8.80;;;2.80;;
67352;SDS011;54238;52.278;21.056;2022-07-21T08:34:20;3.90;;;2.30;;
67352;SDS011;54238;52.278;21.056;2022-07-21T08:36:50;5.90;;;2.30;;
67352;SDS011;54238;52.278;21.056;2022-07-21T08:39:20;4.10;;;2.30;;
67352;SDS011;54238;52.278;21.056;2022-07-21T08:41:49;6.50;;;2.10;;
67352;SDS011;54238;52.278;21.056;2022-07-21T08:44:21;3.20;;;1.90;;
67352;SDS011;54238;52.278;21.056;2022-07-21T08:46:52;4.00;;;1.90;;
67352;SDS011;54238;52.278;21.056;2022-07-21T08:49:21;7.70;;;2.10;;
67352;SDS011;54238;52.278;21.056;2022-07-21T08:51:51;5.90;;;2.00;;
67352;SDS011;54238;52.278;21.056;2022-07-21T08:54:22;3.00;;;2.10;;
67352;SDS011;54238;52.278;21.056;2022-07-21T08:56:51;6.50;;;1.70;;
67352;SDS011;54238;52.278;21.056;2022-07-21T08:59:21;6.20;;;2.10;;
67352;SDS011;54238;52.278;21.056;2022-07-21T09:01:49;5.00;;;1.90;;
67352;SDS011;54238;52.278;21.056;2022-07-21T09:04:28;4.30;;;1.70;;
67352;SDS011;54238;52.278;21.056;2022-07-21T09:07:05;3.20;;;2.00;;
67352;SDS011;54238;52.278;21.056;2022-07-21T09:09:35;5.70;;;2.00;;
67352;SDS011;54238;52.278;21.056;2022-07-21T09:12:06;5.00;;;1.70;;
67352;SDS011;54238;52.278;21.056;2022-07-21T09:14:40;4.20;;;1.80;;
67352;SDS011;54238;52.278;21.056;2022-07-21T09:17:07;4.60;;;1.90;;
67352;SDS011;54238;52.278;21.056;2022-07-21T09:19:36;3.40;;;1.90;;
67352;SDS011;54238;52.278;21.056;2022-07-21T09:22:16;3.00;;;1.90;;
67352;SDS011;54238;52.278;21.056;2022-07-21T09:24:51;5.80;;;1.90;;
67352;SDS011;54238;52.278;21.056;2022-07-21T09:27:25;3.20;;;1.50;;
67352;SDS011;54238;52.278;21.056;2022-07-21T09:29:58;4.80;;;2.00;;
67352;SDS011;54238;52.278;21.056;2022-07-21T09:32:29;4.80;;;2.40;;
67352;SDS011;54238;52.278;21.056;2022-07-21T09:35:10;6.80;;;2.00;;
67352;SDS011;54238;52.278;21.056;2022-07-21T09:37:44;4.00;;;1.90;;
67352;SDS011;54238;52.278;21.056;2022-07-21T09:40:13;4.30;;;2.50;;
67352;SDS011;54238;52.278;21.056;2022-07-21T09:42:48;8.00;;;2.20;;
67352;SDS011;54238;52.278;21.056;2022-07-21T09:45:19;6.50;;;2.00;;
67352;SDS011;54238;52.278;21.056;2022-07-21T09:47:48;4.50;;;2.40;;
67352;SDS011;54238;52.278;21.056;2022-07-21T09:50:20;6.80;;;2.40;;
67352;SDS011;54238;52.278;21.056;2022-07-21T09:52:47;4.80;;;2.20;;
67352;SDS011;54238;52.278;21.056;2022-07-21T09:55:16;4.30;;;3.30;;
67352;SDS011;54238;52.278;21.056;2022-07-21T09:57:46;4.20;;;1.80;;
67352;SDS011;54238;52.278;21.056;2022-07-21T10:00:15;4.20;;;1.60;;
67352;SDS011;54238;52.278;21.056;2022-07-21T10:02:44;6.40;;;2.20;;
67352;SDS011;54238;52.278;21.056;2022-07-21T10:05:14;3.40;;;2.20;;
67352;SDS011;54238;52.278;21.056;2022-07-21T10:07:48;3.50;;;2.00;;
67352;SDS011;54238;52.278;21.056;2022-07-21T10:10:16;2.90;;;2.00;;
67352;SDS011;54238;52.278;21.056;2022-07-21T10:12:47;9.00;;;2.40;;
67352;SDS011;54238;52.278;21.056;2022-07-21T10:15:15;5.60;;;2.30;;
67352;SDS011;54238;52.278;21.056;2022-07-21T10:17:46;3.40;;;1.80;;
67352;SDS011;54238;52.278;21.056;2022-07-21T10:20:32;4.20;;;2.00;;
67352;SDS011;54238;52.278;21.056;2022-07-21T10:25:41;8.20;;;3.30;;
67352;SDS011;54238;52.278;21.056;2022-07-21T10:33:14;4.20;;;2.20;;
67352;SDS011;54238;52.278;21.056;2022-07-21T10:35:44;4.00;;;1.60;;
67352;SDS011;54238;52.278;21.056;2022-07-21T10:38:31;3.60;;;1.80;;
67352;SDS011;54238;52.278;21.056;2022-07-21T10:41:04;3.10;;;1.80;;
67352;SDS011;54238;52.278;21.056;2022-07-21T10:43:36;3.80;;;2.10;;
67352;SDS011;54238;52.278;21.056;2022-07-21T10:46:33;4.40;;;2.00;;
67352;SDS011;54238;52.278;21.056;2022-07-21T10:49:04;4.40;;;2.40;;
67352;SDS011;54238;52.278;21.056;2022-07-21T10:51:32;4.10;;;2.00;;
67352;SDS011;54238;52.278;21.056;2022-07-21T10:54:23;3.10;;;2.30;;
67352;SDS011;54238;52.278;21.056;2022-07-21T10:57:24;5.00;;;2.20;;
67352;SDS011;54238;52.278;21.056;2022-07-21T11:00:29;6.90;;;1.90;;
67352;SDS011;54238;52.278;21.056;2022-07-21T11:03:13;4.70;;;1.80;;
67352;SDS011;54238;52.278;21.056;2022-07-21T11:08:34;8.80;;;2.20;;
67352;SDS011;54238;52.278;21.056;2022-07-21T11:11:21;3.70;;;2.30;;
67352;SDS011;54238;52.278;21.056;2022-07-21T11:14:16;4.00;;;1.90;;
67352;SDS011;54238;52.278;21.056;2022-07-21T11:22:28;3.80;;;2.30;;
67352;SDS011;54238;52.278;21.056;2022-07-21T11:24:59;5.60;;;2.30;;
67352;SDS011;54238;52.278;21.056;2022-07-21T11:27:34;5.50;;;2.00;;
67352;SDS011;54238;52.278;21.056;2022-07-21T11:30:05;9.00;;;2.20;;
67352;SDS011;54238;52.278;21.056;2022-07-21T11:32:35;4.90;;;2.40;;
67352;SDS011;54238;52.278;21.056;2022-07-21T11:35:04;4.80;;;2.20;;
67352;SDS011;54238;52.278;21.056;2022-07-21T11:37:39;9.70;;;2.30;;
67352;SDS011;54238;52.278;21.056;2022-07-21T11:40:16;7.00;;;2.50;;
67352;SDS011;54238;52.278;21.056;2022-07-21T11:42:47;3.60;;;2.10;;
67352;SDS011;54238;52.278;21.056;2022-07-21T11:45:22;3.90;;;1.90;;
67352;SDS011;54238;52.278;21.056;2022-07-21T11:47:52;6.10;;;2.10;;
67352;SDS011;54238;52.278;21.056;2022-07-21T11:50:22;5.80;;;2.30;;
67352;SDS011;54238;52.278;21.056;2022-07-21T11:52:56;7.10;;;2.40;;
67352;SDS011;54238;52.278;21.056;2022-07-21T11:55:27;6.50;;;2.40;;
67352;SDS011;54238;52.278;21.056;2022-07-21T11:57:56;4.00;;;2.40;;
67352;SDS011;54238;52.278;21.056;2022-07-21T12:00:24;4.40;;;2.50;;
67352;SDS011;54238;52.278;21.056;2022-07-21T12:03:03;8.90;;;2.70;;
67352;SDS011;54238;52.278;21.056;2022-07-21T12:05:32;5.50;;;2.40;;
67352;SDS011;54238;52.278;21.056;2022-07-21T12:08:01;5.30;;;2.30;;
67352;SDS011;54238;52.278;21.056;2022-07-21T12:10:32;4.60;;;2.40;;
67352;SDS011;54238;52.278;21.056;2022-07-21T12:13:05;5.50;;;2.20;;
67352;SDS011;54238;52.278;21.056;2022-07-21T12:15:36;4.30;;;2.30;;
67352;SDS011;54238;52.278;21.056;2022-07-21T12:18:21;7.00;;;2.60;;
67352;SDS011;54238;52.278;21.056;2022-07-21T12:21:04;4.50;;;2.20;;
67352;SDS011;54238;52.278;21.056;2022-07-21T12:23:34;8.80;;;2.50;;
67352;SDS011;54238;52.278;21.056;2022-07-21T12:26:04;8.50;;;2.50;;
67352;SDS011;54238;52.278;21.056;2022-07-21T12:28:45;8.20;;;2.60;;
67352;SDS011;54238;52.278;21.056;2022-07-21T12:31:16;6.90;;;2.30;;
67352;SDS011;54238;52.278;21.056;2022-07-21T12:33:51;3.90;;;2.60;;
67352;SDS011;54238;52.278;21.056;2022-07-21T12:36:20;5.00;;;2.30;;
67352;SDS011;54238;52.278;21.056;2022-07-21T12:38:50;4.70;;;2.70;;
67352;SDS011;54238;52.278;21.056;2022-07-21T12:41:19;4.40;;;2.70;;
67352;SDS011;54238;52.278;21.056;2022-07-21T12:43:55;8.90;;;2.60;;
67352;SDS011;54238;52.278;21.056;2022-07-21T12:46:33;8.30;;;2.90;;
67352;SDS011;54238;52.278;21.056;2022-07-21T12:49:06;6.60;;;2.50;;
67352;SDS011;54238;52.278;21.056;2022-07-21T12:51:37;7.70;;;2.70;;
67352;SDS011;54238;52.278;21.056;2022-07-21T12:54:07;4.30;;;2.70;;
67352;SDS011;54238;52.278;21.056;2022-07-21T12:56:35;5.70;;;2.90;;
67352;SDS011;54238;52.278;21.056;2022-07-21T12:59:05;5.80;;;2.70;;
67352;SDS011;54238;52.278;21.056;2022-07-21T13:01:43;9.70;;;2.60;;
67352;SDS011;54238;52.278;21.056;2022-07-21T13:04:12;11.80;;;2.90;;
67352;SDS011;54238;52.278;21.056;2022-07-21T13:06:41;4.50;;;2.40;;
67352;SDS011;54238;52.278;21.056;2022-07-21T13:09:08;6.60;;;2.70;;
67352;SDS011;54238;52.278;21.056;2022-07-21T13:11:37;4.90;;;2.60;;
67352;SDS011;54238;52.278;21.056;2022-07-21T13:14:04;5.10;;;2.20;;
67352;SDS011;54238;52.278;21.056;2022-07-21T13:16:31;5.20;;;2.70;;
67352;SDS011;54238;52.278;21.056;2022-07-21T13:18:58;10.00;;;2.80;;
67352;SDS011;54238;52.278;21.056;2022-07-21T13:21:25;5.60;;;2.60;;
67352;SDS011;54238;52.278;21.056;2022-07-21T13:23:52;5.40;;;2.70;;
67352;SDS011;54238;52.278;21.056;2022-07-21T13:26:21;7.20;;;2.80;;
67352;SDS011;54238;52.278;21.056;2022-07-21T13:28:48;5.90;;;2.80;;
67352;SDS011;54238;52.278;21.056;2022-07-21T13:31:17;7.00;;;2.60;;
67352;SDS011;54238;52.278;21.056;2022-07-21T13:33:49;5.80;;;2.70;;
67352;SDS011;54238;52.278;21.056;2022-07-21T13:36:16;2.70;;;2.20;;
67352;SDS011;54238;52.278;21.056;2022-07-21T13:38:46;4.80;;;2.40;;
67352;SDS011;54238;52.278;21.056;2022-07-21T13:41:13;6.20;;;2.60;;
67352;SDS011;54238;52.278;21.056;2022-07-21T13:43:44;3.80;;;2.60;;
67352;SDS011;54238;52.278;21.056;2022-07-21T13:46:13;3.70;;;2.50;;
67352;SDS011;54238;52.278;21.056;2022-07-21T13:48:41;5.80;;;3.10;;
67352;SDS011;54238;52.278;21.056;2022-07-21T13:51:13;8.10;;;2.70;;
67352;SDS011;54238;52.278;21.056;2022-07-21T13:53:50;6.20;;;2.60;;
67352;SDS011;54238;52.278;21.056;2022-07-21T13:56:19;8.00;;;2.90;;
67352;SDS011;54238;52.278;21.056;2022-07-21T13:58:51;7.60;;;2.50;;
67352;SDS011;54238;52.278;21.056;2022-07-21T14:01:21;5.50;;;2.70;;
67352;SDS011;54238;52.278;21.056;2022-07-21T14:03:51;7.70;;;3.00;;
67352;SDS011;54238;52.278;21.056;2022-07-21T14:06:20;4.50;;;2.70;;
67352;SDS011;54238;52.278;21.056;2022-07-21T14:08:47;5.60;;;2.50;;
67352;SDS011;54238;52.278;21.056;2022-07-21T14:11:14;3.50;;;2.20;;
67352;SDS011;54238;52.278;21.056;2022-07-21T14:13:42;4.30;;;2.30;;
67352;SDS011;54238;52.278;21.056;2022-07-21T14:16:10;7.60;;;2.60;;
67352;SDS011;54238;52.278;21.056;2022-07-21T14:18:37;9.30;;;2.60;;
67352;SDS011;54238;52.278;21.056;2022-07-21T14:21:05;7.50;;;2.60;;
67352;SDS011;54238;52.278;21.056;2022-07-21T14:23:32;6.90;;;2.60;;
67352;SDS011;54238;52.278;21.056;2022-07-21T14:26:02;6.00;;;2.50;;
67352;SDS011;54238;52.278;21.056;2022-07-21T14:28:29;5.90;;;2.50;;
67352;SDS011;54238;52.278;21.056;2022-07-21T14:30:57;5.70;;;3.00;;
67352;SDS011;54238;52.278;21.056;2022-07-21T14:33:27;5.50;;;2.60;;
67352;SDS011;54238;52.278;21.056;2022-07-21T14:36:07;4.10;;;2.20;;
67352;SDS011;54238;52.278;21.056;2022-07-21T14:38:34;7.20;;;2.90;;
67352;SDS011;54238;52.278;21.056;2022-07-21T14:41:09;8.80;;;3.00;;
67352;SDS011;54238;52.278;21.056;2022-07-21T14:43:36;6.80;;;2.40;;
67352;SDS011;54238;52.278;21.056;2022-07-21T14:46:12;6.10;;;2.80;;
67352;SDS011;54238;52.278;21.056;2022-07-21T14:48:39;6.80;;;2.60;;
67352;SDS011;54238;52.278;21.056;2022-07-21T14:51:06;6.70;;;2.90;;
67352;SDS011;54238;52.278;21.056;2022-07-21T14:53:36;7.90;;;2.80;;
67352;SDS011;54238;52.278;21.056;2022-07-21T14:56:05;6.30;;;2.90;;
67352;SDS011;54238;52.278;21.056;2022-07-21T14:58:32;7.40;;;3.10;;
67352;SDS011;54238;52.278;21.056;2022-07-21T15:01:02;6.80;;;2.50;;
67352;SDS011;54238;52.278;21.056;2022-07-21T15:03:32;7.20;;;2.30;;
67352;SDS011;54238;52.278;21.056;2022-07-21T15:05:58;8.50;;;2.80;;
67352;SDS011;54238;52.278;21.056;2022-07-21T15:08:25;9.70;;;2.80;;
67352;SDS011;54238;52.278;21.056;2022-07-21T15:10:53;4.60;;;2.50;;
67352;SDS011;54238;52.278;21.056;2022-07-21T15:13:22;7.50;;;2.70;;
67352;SDS011;54238;52.278;21.056;2022-07-21T15:15:55;7.70;;;2.50;;